sensor_id;sensor_type;location;lat;lon;timestamp;pressure;altitude;pressure_sealevel;temperature;humidity
34658;BME280;20865;43.312;27.152;2022-07-05T00:00:57;100454.47;;;27.17;39.24
34658;BME280;20865;43.312;27.152;2022-07-05T00:03:25;100462.98;;;27.14;38.85
34658;BME280;20865;43.312;27.152;2022-07-05T00:05:55;100460.16;;;27.10;38.84
34658;BME280;20865;43.312;27.152;2022-07-05T00:08:23;100459.32;;;26.99;39.24
34658;BME280;20865;43.312;27.152;2022-07-05T00:10:50;100461.84;;;26.97;39.40
34658;BME280;20865;43.312;27.152;2022-07-05T00:13:18;100470.41;;;26.98;39.54
34658;BME280;20865;43.312;27.152;2022-07-05T00:15:46;100462.30;;;26.92;39.55
34658;BME280;20865;43.312;27.152;2022-07-05T00:18:13;100467.63;;;26.84;39.64
34658;BME280;20865;43.312;27.152;2022-07-05T00:20:41;100455.30;;;26.84;39.28
34658;BME280;20865;43.312;27.152;2022-07-05T00:23:08;100462.82;;;26.82;39.19
34658;BME280;20865;43.312;27.152;2022-07-05T00:25:36;100462.95;;;26.80;39.31
34658;BME280;20865;43.312;27.152;2022-07-05T00:28:04;100467.95;;;26.71;39.61
34658;BME280;20865;43.312;27.152;2022-07-05T00:30:32;100467.00;;;26.67;39.64
34658;BME280;20865;43.312;27.152;2022-07-05T00:33:00;100458.38;;;26.62;39.74
34658;BME280;20865;43.312;27.152;2022-07-05T00:35:27;100458.21;;;26.63;39.65
34658;BME280;20865;43.312;27.152;2022-07-05T00:37:55;100458.91;;;26.46;40.08
34658;BME280;20865;43.312;27.152;2022-07-05T00:40:23;100457.03;;;26.46;40.17
34658;BME280;20865;43.312;27.152;2022-07-05T00:42:50;100452.52;;;26.41;40.30
34658;BME280;20865;43.312;27.152;2022-07-05T00:45:18;100451.08;;;26.37;40.49
34658;BME280;20865;43.312;27.152;2022-07-05T00:47:47;100448.34;;;26.37;40.27
34658;BME280;20865;43.312;27.152;2022-07-05T00:50:15;100451.70;;;26.35;40.30
34658;BME280;20865;43.312;27.152;2022-07-05T00:52:42;100448.11;;;26.34;39.82
34658;BME280;20865;43.312;27.152;2022-07-05T00:55:10;100441.84;;;26.38;39.98
34658;BME280;20865;43.312;27.152;2022-07-05T00:57:38;100441.77;;;26.34;40.06
34658;BME280;20865;43.312;27.152;2022-07-05T01:00:06;100444.95;;;26.29;40.10
34658;BME280;20865;43.312;27.152;2022-07-05T01:02:34;100442.27;;;26.24;40.07
34658;BME280;20865;43.312;27.152;2022-07-05T01:05:04;100429.61;;;26.23;40.04
34658;BME280;20865;43.312;27.152;2022-07-05T01:07:31;100423.68;;;26.18;40.18
34658;BME280;20865;43.312;27.152;2022-07-05T01:09:59;100415.75;;;26.14;40.06
34658;BME280;20865;43.312;27.152;2022-07-05T01:12:27;100420.23;;;26.06;40.05
34658;BME280;20865;43.312;27.152;2022-07-05T01:14:55;100411.20;;;25.90;40.35
34658;BME280;20865;43.312;27.152;2022-07-05T01:17:23;100420.21;;;25.96;40.50
34658;BME280;20865;43.312;27.152;2022-07-05T01:19:51;100419.05;;;25.89;40.78
34658;BME280;20865;43.312;27.152;2022-07-05T01:22:20;100422.72;;;25.94;40.70
34658;BME280;20865;43.312;27.152;2022-07-05T01:24:50;100424.47;;;25.95;40.75
34658;BME280;20865;43.312;27.152;2022-07-05T01:27:19;100429.05;;;25.94;41.10
34658;BME280;20865;43.312;27.152;2022-07-05T01:29:47;100432.59;;;26.00;40.63
34658;BME280;20865;43.312;27.152;2022-07-05T01:32:15;100427.56;;;25.96;40.36
34658;BME280;20865;43.312;27.152;2022-07-05T01:34:43;100431.72;;;25.90;40.31
34658;BME280;20865;43.312;27.152;2022-07-05T01:37:10;100432.38;;;25.88;40.39
34658;BME280;20865;43.312;27.152;2022-07-05T01:39:38;100435.40;;;25.85;40.61
34658;BME280;20865;43.312;27.152;2022-07-05T01:42:07;100438.48;;;25.86;40.55
34658;BME280;20865;43.312;27.152;2022-07-05T01:44:34;100440.02;;;25.79;40.77
34658;BME280;20865;43.312;27.152;2022-07-05T01:47:06;100432.60;;;25.75;40.56
34658;BME280;20865;43.312;27.152;2022-07-05T01:49:38;100429.05;;;25.69;40.85
34658;BME280;20865;43.312;27.152;2022-07-05T01:52:11;100431.00;;;25.73;40.95
34658;BME280;20865;43.312;27.152;2022-07-05T01:54:39;100428.55;;;25.70;41.06
34658;BME280;20865;43.312;27.152;2022-07-05T01:57:07;100434.33;;;25.66;41.08
34658;BME280;20865;43.312;27.152;2022-07-05T01:59:36;100438.50;;;25.71;40.91
34658;BME280;20865;43.312;27.152;2022-07-05T02:02:05;100432.02;;;25.72;40.68
34658;BME280;20865;43.312;27.152;2022-07-05T02:04:35;100422.88;;;25.67;40.77
34658;BME280;20865;43.312;27.152;2022-07-05T02:07:06;100426.24;;;25.65;40.65
34658;BME280;20865;43.312;27.152;2022-07-05T02:09:35;100418.47;;;25.60;40.56
34658;BME280;20865;43.312;27.152;2022-07-05T02:12:04;100428.39;;;25.61;40.60
34658;BME280;20865;43.312;27.152;2022-07-05T02:14:32;100438.91;;;25.56;40.65
34658;BME280;20865;43.312;27.152;2022-07-05T02:17:00;100436.28;;;25.55;41.07
34658;BME280;20865;43.312;27.152;2022-07-05T02:19:28;100435.42;;;25.54;41.17
34658;BME280;20865;43.312;27.152;2022-07-05T02:21:55;100431.60;;;25.51;41.25
34658;BME280;20865;43.312;27.152;2022-07-05T02:24:23;100437.61;;;25.45;40.62
34658;BME280;20865;43.312;27.152;2022-07-05T02:26:51;100439.37;;;25.46;40.38
34658;BME280;20865;43.312;27.152;2022-07-05T02:29:18;100446.20;;;25.46;40.41
34658;BME280;20865;43.312;27.152;2022-07-05T02:31:46;100439.13;;;25.43;40.42
34658;BME280;20865;43.312;27.152;2022-07-05T02:34:14;100440.77;;;25.40;40.90
34658;BME280;20865;43.312;27.152;2022-07-05T02:36:42;100443.08;;;25.35;41.36
34658;BME280;20865;43.312;27.152;2022-07-05T02:39:09;100440.34;;;25.35;41.56
34658;BME280;20865;43.312;27.152;2022-07-05T02:41:37;100441.79;;;25.39;41.58
34658;BME280;20865;43.312;27.152;2022-07-05T02:44:04;100445.53;;;25.38;41.68
34658;BME280;20865;43.312;27.152;2022-07-05T02:46:32;100453.23;;;25.39;40.98
34658;BME280;20865;43.312;27.152;2022-07-05T02:49:00;100453.03;;;25.31;40.72
34658;BME280;20865;43.312;27.152;2022-07-05T02:51:27;100448.30;;;25.33;40.79
34658;BME280;20865;43.312;27.152;2022-07-05T02:53:55;100455.68;;;25.27;41.12
34658;BME280;20865;43.312;27.152;2022-07-05T02:56:22;100458.41;;;25.27;41.27
34658;BME280;20865;43.312;27.152;2022-07-05T02:58:50;100457.05;;;25.27;41.42
34658;BME280;20865;43.312;27.152;2022-07-05T03:01:18;100458.83;;;25.22;41.69
34658;BME280;20865;43.312;27.152;2022-07-05T03:03:45;100471.96;;;25.28;41.84
34658;BME280;20865;43.312;27.152;2022-07-05T03:06:13;100472.94;;;25.27;42.11
34658;BME280;20865;43.312;27.152;2022-07-05T03:08:41;100475.56;;;25.29;42.13
34658;BME280;20865;43.312;27.152;2022-07-05T03:11:09;100474.19;;;25.29;42.02
34658;BME280;20865;43.312;27.152;2022-07-05T03:13:36;100478.30;;;25.29;42.20
34658;BME280;20865;43.312;27.152;2022-07-05T03:16:04;100468.19;;;25.35;42.26
34658;BME280;20865;43.312;27.152;2022-07-05T03:18:32;100461.94;;;25.38;41.96
34658;BME280;20865;43.312;27.152;2022-07-05T03:21:00;100475.48;;;25.34;42.07
34658;BME280;20865;43.312;27.152;2022-07-05T03:23:27;100472.76;;;25.34;42.40
34658;BME280;20865;43.312;27.152;2022-07-05T03:25:55;100472.72;;;25.40;42.31
34658;BME280;20865;43.312;27.152;2022-07-05T03:28:22;100476.83;;;25.40;42.44
34658;BME280;20865;43.312;27.152;2022-07-05T03:30:50;100475.69;;;25.42;42.61
34658;BME280;20865;43.312;27.152;2022-07-05T03:33:18;100477.50;;;25.48;42.59
34658;BME280;20865;43.312;27.152;2022-07-05T03:35:45;100479.61;;;25.50;42.47
34658;BME280;20865;43.312;27.152;2022-07-05T03:38:13;100480.82;;;25.51;42.43
34658;BME280;20865;43.312;27.152;2022-07-05T03:40:40;100471.41;;;25.50;42.46
34658;BME280;20865;43.312;27.152;2022-07-05T03:43:08;100468.01;;;25.52;42.48
34658;BME280;20865;43.312;27.152;2022-07-05T03:45:36;100462.19;;;25.51;42.51
34658;BME280;20865;43.312;27.152;2022-07-05T03:48:04;100472.81;;;25.59;42.41
34658;BME280;20865;43.312;27.152;2022-07-05T03:50:32;100471.45;;;25.59;42.54
34658;BME280;20865;43.312;27.152;2022-07-05T03:52:59;100473.88;;;25.62;42.74
34658;BME280;20865;43.312;27.152;2022-07-05T03:55:27;100481.61;;;25.63;42.98
34658;BME280;20865;43.312;27.152;2022-07-05T03:57:55;100486.88;;;25.70;42.97
34658;BME280;20865;43.312;27.152;2022-07-05T04:00:22;100495.02;;;25.76;43.00
34658;BME280;20865;43.312;27.152;2022-07-05T04:02:50;100473.36;;;25.78;42.88
34658;BME280;20865;43.312;27.152;2022-07-05T04:05:17;100482.20;;;25.76;43.17
34658;BME280;20865;43.312;27.152;2022-07-05T04:07:53;100489.77;;;25.84;43.22
34658;BME280;20865;43.312;27.152;2022-07-05T04:10:21;100477.66;;;25.86;43.13
34658;BME280;20865;43.312;27.152;2022-07-05T04:12:49;100481.48;;;25.89;43.05
34658;BME280;20865;43.312;27.152;2022-07-05T04:15:17;100479.05;;;25.96;43.19
34658;BME280;20865;43.312;27.152;2022-07-05T04:17:53;100474.23;;;26.04;43.20
34658;BME280;20865;43.312;27.152;2022-07-05T04:20:22;100470.86;;;26.06;43.06
34658;BME280;20865;43.312;27.152;2022-07-05T04:22:51;100467.44;;;26.33;42.30
34658;BME280;20865;43.312;27.152;2022-07-05T04:25:19;100467.50;;;26.37;42.30
34658;BME280;20865;43.312;27.152;2022-07-05T04:27:54;100465.41;;;26.45;42.11
34658;BME280;20865;43.312;27.152;2022-07-05T04:30:26;100465.38;;;26.50;41.92
34658;BME280;20865;43.312;27.152;2022-07-05T04:32:53;100461.75;;;26.59;41.92
34658;BME280;20865;43.312;27.152;2022-07-05T04:35:22;100463.85;;;26.52;42.00
34658;BME280;20865;43.312;27.152;2022-07-05T04:37:50;100462.42;;;26.57;41.55
34658;BME280;20865;43.312;27.152;2022-07-05T04:40:18;100465.95;;;26.54;41.32
34658;BME280;20865;43.312;27.152;2022-07-05T04:42:45;100460.95;;;26.63;41.45
34658;BME280;20865;43.312;27.152;2022-07-05T04:45:13;100465.41;;;26.74;41.57
34658;BME280;20865;43.312;27.152;2022-07-05T04:47:40;100463.81;;;26.81;41.28
34658;BME280;20865;43.312;27.152;2022-07-05T04:50:09;100465.27;;;26.85;40.76
34658;BME280;20865;43.312;27.152;2022-07-05T04:52:36;100459.73;;;26.95;40.88
34658;BME280;20865;43.312;27.152;2022-07-05T04:55:04;100459.21;;;27.05;40.75
34658;BME280;20865;43.312;27.152;2022-07-05T04:57:40;100462.25;;;27.02;40.31
34658;BME280;20865;43.312;27.152;2022-07-05T05:00:10;100459.72;;;27.04;40.30
34658;BME280;20865;43.312;27.152;2022-07-05T05:02:38;100466.91;;;27.25;40.23
34658;BME280;20865;43.312;27.152;2022-07-05T05:05:07;100465.89;;;27.26;40.00
34658;BME280;20865;43.312;27.152;2022-07-05T05:07:34;100468.86;;;27.42;39.99
34658;BME280;20865;43.312;27.152;2022-07-05T05:10:05;100474.95;;;27.50;39.77
34658;BME280;20865;43.312;27.152;2022-07-05T05:12:33;100468.11;;;27.64;39.42
34658;BME280;20865;43.312;27.152;2022-07-05T05:15:00;100473.39;;;27.75;39.49
34658;BME280;20865;43.312;27.152;2022-07-05T05:17:40;100475.64;;;27.89;39.22
34658;BME280;20865;43.312;27.152;2022-07-05T05:20:10;100479.44;;;28.06;39.32
34658;BME280;20865;43.312;27.152;2022-07-05T05:22:38;100478.56;;;28.37;38.52
34658;BME280;20865;43.312;27.152;2022-07-05T05:25:07;100478.56;;;28.37;38.52
34658;BME280;20865;43.312;27.152;2022-07-05T05:27:35;100479.05;;;28.33;37.80
34658;BME280;20865;43.312;27.152;2022-07-05T05:30:02;100474.92;;;28.46;37.99
34658;BME280;20865;43.312;27.152;2022-07-05T05:32:30;100472.72;;;28.72;38.10
34658;BME280;20865;43.312;27.152;2022-07-05T05:34:58;100478.02;;;28.87;38.23
34658;BME280;20865;43.312;27.152;2022-07-05T05:37:25;100475.71;;;29.01;37.54
34658;BME280;20865;43.312;27.152;2022-07-05T05:39:53;100484.08;;;29.17;37.81
34658;BME280;20865;43.312;27.152;2022-07-05T05:42:21;100480.53;;;29.29;37.74
34658;BME280;20865;43.312;27.152;2022-07-05T05:44:48;100488.56;;;29.48;36.93
34658;BME280;20865;43.312;27.152;2022-07-05T05:47:16;100481.56;;;29.58;37.07
34658;BME280;20865;43.312;27.152;2022-07-05T05:49:44;100478.03;;;29.70;37.10
34658;BME280;20865;43.312;27.152;2022-07-05T05:52:11;100483.42;;;29.87;35.84
34658;BME280;20865;43.312;27.152;2022-07-05T05:54:39;100478.84;;;30.08;37.10
34658;BME280;20865;43.312;27.152;2022-07-05T05:57:06;100469.95;;;30.23;35.75
34658;BME280;20865;43.312;27.152;2022-07-05T05:59:34;100480.48;;;30.40;35.36
34658;BME280;20865;43.312;27.152;2022-07-05T06:02:02;100479.98;;;30.56;35.10
34658;BME280;20865;43.312;27.152;2022-07-05T06:04:29;100471.91;;;30.75;35.03
34658;BME280;20865;43.312;27.152;2022-07-05T06:06:57;100477.61;;;30.90;35.07
34658;BME280;20865;43.312;27.152;2022-07-05T06:09:25;100472.58;;;31.02;34.81
34658;BME280;20865;43.312;27.152;2022-07-05T06:11:52;100473.77;;;31.16;34.06
34658;BME280;20865;43.312;27.152;2022-07-05T06:14:20;100482.72;;;31.14;33.19
34658;BME280;20865;43.312;27.152;2022-07-05T06:16:47;100475.29;;;31.26;33.84
34658;BME280;20865;43.312;27.152;2022-07-05T06:19:15;100471.84;;;31.37;33.71
34658;BME280;20865;43.312;27.152;2022-07-05T06:21:43;100470.41;;;31.57;33.43
34658;BME280;20865;43.312;27.152;2022-07-05T06:24:10;100469.27;;;31.78;32.84
34658;BME280;20865;43.312;27.152;2022-07-05T06:26:38;100474.77;;;31.87;33.10
34658;BME280;20865;43.312;27.152;2022-07-05T06:29:05;100478.75;;;31.88;32.06
34658;BME280;20865;43.312;27.152;2022-07-05T06:31:33;100467.63;;;32.05;32.59
34658;BME280;20865;43.312;27.152;2022-07-05T06:34:01;100480.49;;;32.16;32.89
34658;BME280;20865;43.312;27.152;2022-07-05T06:36:28;100479.70;;;32.31;32.32
34658;BME280;20865;43.312;27.152;2022-07-05T06:38:56;100484.14;;;32.36;32.29
34658;BME280;20865;43.312;27.152;2022-07-05T06:41:24;100482.39;;;32.47;32.85
34658;BME280;20865;43.312;27.152;2022-07-05T06:43:51;100486.42;;;32.59;32.82
34658;BME280;20865;43.312;27.152;2022-07-05T06:46:19;100482.20;;;32.71;32.52
34658;BME280;20865;43.312;27.152;2022-07-05T06:48:46;100488.02;;;32.77;32.68
34658;BME280;20865;43.312;27.152;2022-07-05T06:51:14;100478.19;;;32.97;31.68
34658;BME280;20865;43.312;27.152;2022-07-05T06:53:42;100481.13;;;33.14;32.40
34658;BME280;20865;43.312;27.152;2022-07-05T06:56:09;100484.27;;;33.26;32.12
34658;BME280;20865;43.312;27.152;2022-07-05T06:58:37;100478.99;;;33.35;31.00
34658;BME280;20865;43.312;27.152;2022-07-05T07:01:05;100479.17;;;33.53;30.67
34658;BME280;20865;43.312;27.152;2022-07-05T07:03:33;100472.29;;;33.63;29.86
34658;BME280;20865;43.312;27.152;2022-07-05T07:06:00;100478.54;;;33.76;31.10
34658;BME280;20865;43.312;27.152;2022-07-05T07:08:28;100473.56;;;33.86;30.77
34658;BME280;20865;43.312;27.152;2022-07-05T07:11:13;100475.03;;;33.93;28.23
34658;BME280;20865;43.312;27.152;2022-07-05T07:13:43;100473.03;;;34.12;28.27
34658;BME280;20865;43.312;27.152;2022-07-05T07:16:10;100468.25;;;34.21;27.96
34658;BME280;20865;43.312;27.152;2022-07-05T07:18:38;100469.57;;;34.36;28.64
34658;BME280;20865;43.312;27.152;2022-07-05T07:21:06;100472.55;;;34.45;27.85
34658;BME280;20865;43.312;27.152;2022-07-05T07:23:33;100473.09;;;34.55;26.78
34658;BME280;20865;43.312;27.152;2022-07-05T07:26:03;100468.73;;;34.68;27.92
34658;BME280;20865;43.312;27.152;2022-07-05T07:28:30;100478.69;;;34.73;26.94
34658;BME280;20865;43.312;27.152;2022-07-05T07:30:58;100476.41;;;34.94;26.65
34658;BME280;20865;43.312;27.152;2022-07-05T07:33:25;100481.52;;;35.12;26.09
34658;BME280;20865;43.312;27.152;2022-07-05T07:35:54;100471.64;;;35.20;27.60
34658;BME280;20865;43.312;27.152;2022-07-05T07:38:21;100471.42;;;35.21;24.91
34658;BME280;20865;43.312;27.152;2022-07-05T07:40:49;100465.11;;;35.17;23.09
34658;BME280;20865;43.312;27.152;2022-07-05T07:43:17;100469.94;;;35.19;24.01
34658;BME280;20865;43.312;27.152;2022-07-05T07:45:44;100472.19;;;35.37;25.19
34658;BME280;20865;43.312;27.152;2022-07-05T07:48:12;100481.36;;;35.20;25.48
34658;BME280;20865;43.312;27.152;2022-07-05T07:50:39;100473.35;;;35.38;24.54
34658;BME280;20865;43.312;27.152;2022-07-05T07:53:07;100479.80;;;35.45;25.54
34658;BME280;20865;43.312;27.152;2022-07-05T07:55:35;100481.20;;;35.80;25.63
34658;BME280;20865;43.312;27.152;2022-07-05T07:58:02;100479.23;;;35.98;23.80
34658;BME280;20865;43.312;27.152;2022-07-05T08:00:30;100485.10;;;36.10;23.08
34658;BME280;20865;43.312;27.152;2022-07-05T08:02:58;100485.67;;;36.29;23.29
34658;BME280;20865;43.312;27.152;2022-07-05T08:05:26;100478.76;;;36.42;22.06
34658;BME280;20865;43.312;27.152;2022-07-05T08:07:53;100485.23;;;36.56;22.00
34658;BME280;20865;43.312;27.152;2022-07-05T08:10:21;100478.08;;;36.51;21.56
34658;BME280;20865;43.312;27.152;2022-07-05T08:12:49;100482.19;;;36.38;19.29
34658;BME280;20865;43.312;27.152;2022-07-05T08:15:16;100492.73;;;36.25;22.24
34658;BME280;20865;43.312;27.152;2022-07-05T08:17:44;100488.55;;;36.25;22.11
34658;BME280;20865;43.312;27.152;2022-07-05T08:20:13;100494.61;;;36.11;19.93
34658;BME280;20865;43.312;27.152;2022-07-05T08:22:48;100486.41;;;36.20;21.12
34658;BME280;20865;43.312;27.152;2022-07-05T08:25:16;100488.09;;;36.15;19.57
34658;BME280;20865;43.312;27.152;2022-07-05T08:27:43;100483.38;;;35.91;20.91
34658;BME280;20865;43.312;27.152;2022-07-05T08:30:11;100475.60;;;35.97;20.87
34658;BME280;20865;43.312;27.152;2022-07-05T08:32:39;100483.56;;;36.00;21.86
34658;BME280;20865;43.312;27.152;2022-07-05T08:35:08;100487.88;;;36.10;21.21
34658;BME280;20865;43.312;27.152;2022-07-05T08:37:35;100483.63;;;36.20;19.76
34658;BME280;20865;43.312;27.152;2022-07-05T08:40:05;100474.69;;;36.38;21.50
34658;BME280;20865;43.312;27.152;2022-07-05T08:42:33;100483.96;;;36.59;20.81
34658;BME280;20865;43.312;27.152;2022-07-05T08:45:03;100472.23;;;36.46;18.39
34658;BME280;20865;43.312;27.152;2022-07-05T08:47:33;100480.12;;;36.73;19.34
34658;BME280;20865;43.312;27.152;2022-07-05T08:50:03;100478.51;;;36.94;20.23
34658;BME280;20865;43.312;27.152;2022-07-05T08:52:31;100470.50;;;37.09;20.20
34658;BME280;20865;43.312;27.152;2022-07-05T08:55:00;100469.28;;;37.27;20.52
34658;BME280;20865;43.312;27.152;2022-07-05T08:57:28;100458.92;;;37.45;20.52
34658;BME280;20865;43.312;27.152;2022-07-05T08:59:56;100465.39;;;37.55;19.84
34658;BME280;20865;43.312;27.152;2022-07-05T09:02:23;100468.58;;;37.65;18.91
34658;BME280;20865;43.312;27.152;2022-07-05T09:04:52;100462.28;;;37.60;17.62
34658;BME280;20865;43.312;27.152;2022-07-05T09:07:21;100459.66;;;37.72;19.23
34658;BME280;20865;43.312;27.152;2022-07-05T09:09:49;100456.12;;;37.74;18.19
34658;BME280;20865;43.312;27.152;2022-07-05T09:12:18;100458.13;;;37.54;17.52
34658;BME280;20865;43.312;27.152;2022-07-05T09:14:45;100459.33;;;37.49;16.55
34658;BME280;20865;43.312;27.152;2022-07-05T09:17:13;100461.34;;;37.51;17.27
34658;BME280;20865;43.312;27.152;2022-07-05T09:19:42;100451.05;;;37.51;17.62
34658;BME280;20865;43.312;27.152;2022-07-05T09:22:09;100447.09;;;37.56;18.47
34658;BME280;20865;43.312;27.152;2022-07-05T09:24:44;100451.41;;;37.32;18.07
34658;BME280;20865;43.312;27.152;2022-07-05T09:27:12;100447.29;;;37.41;17.97
34658;BME280;20865;43.312;27.152;2022-07-05T09:29:59;100450.27;;;37.66;18.48
34658;BME280;20865;43.312;27.152;2022-07-05T09:32:27;100450.25;;;37.73;17.66
34658;BME280;20865;43.312;27.152;2022-07-05T09:34:51;100447.77;;;37.74;17.62
34658;BME280;20865;43.312;27.152;2022-07-05T09:37:19;100445.34;;;37.62;17.52
34658;BME280;20865;43.312;27.152;2022-07-05T09:39:47;100441.94;;;37.60;18.57
34658;BME280;20865;43.312;27.152;2022-07-05T09:42:22;100433.98;;;37.63;18.29
34658;BME280;20865;43.312;27.152;2022-07-05T09:44:57;100431.20;;;37.21;17.39
34658;BME280;20865;43.312;27.152;2022-07-05T09:47:28;100436.25;;;37.02;18.04
34658;BME280;20865;43.312;27.152;2022-07-05T09:49:59;100434.61;;;37.16;17.42
34658;BME280;20865;43.312;27.152;2022-07-05T09:52:37;100431.20;;;37.21;18.10
34658;BME280;20865;43.312;27.152;2022-07-05T09:55:10;100430.18;;;37.45;18.89
34658;BME280;20865;43.312;27.152;2022-07-05T09:57:39;100427.73;;;37.32;18.14
34658;BME280;20865;43.312;27.152;2022-07-05T10:00:19;100422.78;;;37.34;18.27
34658;BME280;20865;43.312;27.152;2022-07-05T10:02:56;100422.42;;;36.91;17.59
34658;BME280;20865;43.312;27.152;2022-07-05T10:05:31;100423.08;;;36.93;18.57
34658;BME280;20865;43.312;27.152;2022-07-05T10:08:00;100422.22;;;37.06;17.86
34658;BME280;20865;43.312;27.152;2022-07-05T10:10:32;100427.39;;;37.45;19.42
34658;BME280;20865;43.312;27.152;2022-07-05T10:13:02;100421.24;;;37.09;18.14
34658;BME280;20865;43.312;27.152;2022-07-05T10:15:37;100430.02;;;37.62;19.73
34658;BME280;20865;43.312;27.152;2022-07-05T10:18:06;100426.41;;;37.41;18.78
34658;BME280;20865;43.312;27.152;2022-07-05T10:23:14;100416.58;;;37.52;20.11
34658;BME280;20865;43.312;27.152;2022-07-05T10:25:39;100419.95;;;37.61;19.54
34658;BME280;20865;43.312;27.152;2022-07-05T10:28:08;100424.13;;;37.90;19.10
34658;BME280;20865;43.312;27.152;2022-07-05T10:30:37;100418.95;;;37.71;18.03
34658;BME280;20865;43.312;27.152;2022-07-05T10:33:07;100420.83;;;37.91;19.35
34658;BME280;20865;43.312;27.152;2022-07-05T10:35:35;100412.36;;;37.81;18.41
34658;BME280;20865;43.312;27.152;2022-07-05T10:38:03;100411.39;;;38.23;19.44
34658;BME280;20865;43.312;27.152;2022-07-05T10:40:33;100408.97;;;38.33;18.18
34658;BME280;20865;43.312;27.152;2022-07-05T10:43:02;100408.45;;;37.96;19.01
34658;BME280;20865;43.312;27.152;2022-07-05T10:45:34;100404.12;;;38.22;18.80
34658;BME280;20865;43.312;27.152;2022-07-05T10:53:19;100394.20;;;38.58;19.28
34658;BME280;20865;43.312;27.152;2022-07-05T11:06:26;100375.03;;;38.43;18.13
34658;BME280;20865;43.312;27.152;2022-07-05T11:11:31;100372.59;;;38.38;18.44
34658;BME280;20865;43.312;27.152;2022-07-05T11:14:03;100379.37;;;38.32;19.66
34658;BME280;20865;43.312;27.152;2022-07-05T11:16:34;100371.39;;;38.43;19.07
34658;BME280;20865;43.312;27.152;2022-07-05T11:19:09;100368.65;;;38.61;20.09
34658;BME280;20865;43.312;27.152;2022-07-05T11:21:39;100367.37;;;38.16;19.08
34658;BME280;20865;43.312;27.152;2022-07-05T11:24:24;100370.77;;;37.80;19.81
34658;BME280;20865;43.312;27.152;2022-07-05T11:26:57;100366.00;;;37.94;20.11
34658;BME280;20865;43.312;27.152;2022-07-05T11:32:34;100359.71;;;38.21;19.39
34658;BME280;20865;43.312;27.152;2022-07-05T11:35:13;100361.39;;;38.12;19.33
34658;BME280;20865;43.312;27.152;2022-07-05T11:38:03;100352.00;;;38.32;20.59
34658;BME280;20865;43.312;27.152;2022-07-05T11:40:34;100354.53;;;38.24;19.00
34658;BME280;20865;43.312;27.152;2022-07-05T11:42:59;100350.09;;;38.32;20.12
34658;BME280;20865;43.312;27.152;2022-07-05T11:45:30;100352.22;;;38.05;19.40
34658;BME280;20865;43.312;27.152;2022-07-05T11:47:58;100346.59;;;37.96;19.97
34658;BME280;20865;43.312;27.152;2022-07-05T11:50:33;100343.80;;;37.96;20.42
34658;BME280;20865;43.312;27.152;2022-07-05T11:52:56;100339.45;;;38.32;20.71
34658;BME280;20865;43.312;27.152;2022-07-05T11:55:25;100339.88;;;38.35;20.18
34658;BME280;20865;43.312;27.152;2022-07-05T11:57:54;100333.79;;;38.36;20.65
34658;BME280;20865;43.312;27.152;2022-07-05T12:00:34;100332.87;;;38.26;20.56
34658;BME280;20865;43.312;27.152;2022-07-05T12:03:11;100338.83;;;38.36;20.18
34658;BME280;20865;43.312;27.152;2022-07-05T12:05:39;100335.13;;;37.73;20.48
34658;BME280;20865;43.312;27.152;2022-07-05T12:08:09;100338.69;;;38.09;20.85
34658;BME280;20865;43.312;27.152;2022-07-05T12:10:37;100330.37;;;38.02;20.67
34658;BME280;20865;43.312;27.152;2022-07-05T12:13:23;100321.17;;;38.27;21.78
34658;BME280;20865;43.312;27.152;2022-07-05T12:15:58;100326.00;;;38.63;21.43
34658;BME280;20865;43.312;27.152;2022-07-05T12:18:23;100319.52;;;38.19;20.87
34658;BME280;20865;43.312;27.152;2022-07-05T12:20:51;100320.55;;;38.41;21.59
34658;BME280;20865;43.312;27.152;2022-07-05T12:23:25;100317.84;;;38.52;21.17
34658;BME280;20865;43.312;27.152;2022-07-05T12:25:49;100319.42;;;38.32;21.43
34658;BME280;20865;43.312;27.152;2022-07-05T12:28:16;100313.34;;;38.26;21.61
34658;BME280;20865;43.312;27.152;2022-07-05T12:30:44;100305.68;;;38.06;21.23
34658;BME280;20865;43.312;27.152;2022-07-05T12:33:11;100307.80;;;38.35;22.12
34658;BME280;20865;43.312;27.152;2022-07-05T12:35:46;100313.80;;;38.23;21.78
34658;BME280;20865;43.312;27.152;2022-07-05T12:38:18;100306.32;;;38.33;22.01
34658;BME280;20865;43.312;27.152;2022-07-05T12:40:48;100311.99;;;38.35;22.57
34658;BME280;20865;43.312;27.152;2022-07-05T12:43:17;100317.28;;;37.64;22.64
34658;BME280;20865;43.312;27.152;2022-07-05T12:46:05;100315.98;;;37.67;22.43
34658;BME280;20865;43.312;27.152;2022-07-05T12:48:37;100309.27;;;37.97;21.97
34658;BME280;20865;43.312;27.152;2022-07-05T12:51:07;100309.31;;;38.06;22.07
34658;BME280;20865;43.312;27.152;2022-07-05T12:53:46;100312.45;;;38.01;21.75
34658;BME280;20865;43.312;27.152;2022-07-05T12:56:32;100300.91;;;38.13;22.48
34658;BME280;20865;43.312;27.152;2022-07-05T12:59:17;100306.47;;;37.81;22.45
34658;BME280;20865;43.312;27.152;2022-07-05T13:01:45;100306.91;;;37.78;22.23
34658;BME280;20865;43.312;27.152;2022-07-05T13:04:17;100295.88;;;37.97;21.89
34658;BME280;20865;43.312;27.152;2022-07-05T13:06:56;100305.52;;;37.78;22.29
34658;BME280;20865;43.312;27.152;2022-07-05T13:09:32;100303.72;;;37.75;22.44
34658;BME280;20865;43.312;27.152;2022-07-05T13:12:20;100293.91;;;37.65;22.54
34658;BME280;20865;43.312;27.152;2022-07-05T13:14:47;100296.59;;;37.70;22.36